Big Bear Station Historical Data
Daily Summary for March 13, 2019 Units:  English    Metric   Both
Next Day »
Daily Weekly Monthly Yearly Custom
  High: Low: Average:
Temperature: 37.4 °F 23.4 °F 29.6 °F
Dew Point: 29.9 °F 13.1 °F 21.3 °F
Humidity: 98% 48% 72%
Wind Speed: 7.8mph 0.0mph 2.9mph
Wind Gust: -999.0mph - -
Wind- - WSW
Pressure: 23.50 in 23.20 in -
Precipitation: 0.07 in    
Historical Graphs
 
 
Tabular Data for March 13, 2019
Time Temperature Dew Point Pressure Wind Wind Speed Wind Gust Humidity Rainfall Rate (Hourly)
00:08 30.6 °F 29.9 °F 23.20 in NNE 5.3 mph -999.0 mph 97% 0.00 in
00:23 30.6 °F 29.9 °F 23.20 in ENE 1.7 mph -999.0 mph 97% 0.00 in
00:39 30.4 °F 29.9 °F 23.20 in WSW 2.7 mph -999.0 mph 98% 0.00 in
00:54 30.4 °F 29.9 °F 23.20 in WNW 2.7 mph -999.0 mph 98% 0.00 in
01:09 30.4 °F 29.9 °F 23.20 in NE 2.7 mph -999.0 mph 98% 0.00 in
01:24 30.4 °F 29.9 °F 23.21 in NNW 2.7 mph -999.0 mph 98% 0.00 in
01:39 30.4 °F 29.9 °F 23.21 in WSW 6.3 mph -999.0 mph 98% 0.00 in
01:55 30.4 °F 29.9 °F 23.22 in SE 6.3 mph -999.0 mph 98% 0.00 in
02:10 30.2 °F 29.2 °F 23.21 in South 2.7 mph -999.0 mph 96% 0.00 in
02:25 30.4 °F 28.9 °F 23.22 in NW 4.2 mph -999.0 mph 94% 0.00 in
02:41 30.2 °F 28.4 °F 23.23 in West 4.2 mph -999.0 mph 93% 0.00 in
02:56 29.8 °F 28.0 °F 23.23 in WNW 2.7 mph -999.0 mph 93% 0.00 in
03:11 29.5 °F 26.9 °F 23.22 in WNW 2.2 mph -999.0 mph 90% 0.00 in
03:27 29.3 °F 26.2 °F 23.23 in NNE 5.8 mph -999.0 mph 88% 0.00 in
03:42 29.1 °F 24.6 °F 23.23 in NE 1.7 mph -999.0 mph 83% 0.00 in
03:57 27.5 °F 24.7 °F 23.24 in North 2.2 mph -999.0 mph 89% 0.00 in
04:12 26.8 °F 24.3 °F 23.23 in Calm   -999.0 mph 90% 0.00 in
04:27 26.8 °F 24.0 °F 23.25 in Calm   -999.0 mph 89% 0.00 in
04:43 26.6 °F 24.3 °F 23.25 in Calm   -999.0 mph 91% 0.00 in
04:58 26.2 °F 23.9 °F 23.26 in North 3.7 mph -999.0 mph 91% 0.00 in
05:13 25.9 °F 23.4 °F 23.27 in Calm   -999.0 mph 90% 0.00 in
05:28 25.5 °F 22.4 °F 23.27 in Calm   -999.0 mph 88% 0.00 in
05:44 25.3 °F 22.8 °F 23.28 in Calm   -999.0 mph 90% 0.00 in
05:59 24.8 °F 22.3 °F 23.28 in Calm   -999.0 mph 90% 0.00 in
06:14 24.4 °F 22.2 °F 23.29 in Calm   -999.0 mph 91% 0.00 in
06:29 23.7 °F 21.5 °F 23.30 in Calm   -999.0 mph 91% 0.00 in
06:45 23.4 °F 20.4 °F 23.30 in WNW 2.2 mph -999.0 mph 88% 0.00 in
07:00 23.7 °F 19.6 °F 23.30 in NW 2.2 mph -999.0 mph 84% 0.00 in
07:15 24.3 °F 19.0 °F 23.31 in WNW 3.2 mph -999.0 mph 80% 0.00 in
07:30 24.1 °F 18.2 °F 23.31 in ENE 4.7 mph -999.0 mph 78% 0.00 in
07:45 24.4 °F 18.5 °F 23.32 in Calm   -999.0 mph 78% 0.00 in
08:01 24.6 °F 18.4 °F 23.32 in Calm   -999.0 mph 77% 0.00 in
08:16 25.9 °F 19.7 °F 23.34 in North 2.7 mph -999.0 mph 77% 0.00 in
08:31 26.2 °F 20.3 °F 23.34 in NE 2.7 mph -999.0 mph 78% 0.00 in
08:46 26.2 °F 20.0 °F 23.35 in NNW 4.2 mph -999.0 mph 77% 0.00 in
09:01 26.6 °F 19.4 °F 23.35 in NW 5.3 mph -999.0 mph 74% 0.00 in
09:17 27.0 °F 19.8 °F 23.35 in North 4.2 mph -999.0 mph 74% 0.00 in
09:32 27.5 °F 19.7 °F 23.36 in North 2.7 mph -999.0 mph 72% 0.00 in
09:47 28.0 °F 20.5 °F 23.36 in NNW 5.8 mph -999.0 mph 73% 0.00 in
10:02 28.2 °F 19.0 °F 23.36 in NNW 6.3 mph -999.0 mph 68% 0.00 in
10:18 28.6 °F 19.7 °F 23.37 in North 4.2 mph -999.0 mph 69% 0.00 in
10:34 29.5 °F 19.5 °F 23.36 in NNE 4.2 mph -999.0 mph 66% 0.00 in
10:49 30.9 °F 19.8 °F 23.37 in NW 4.7 mph -999.0 mph 63% 0.00 in
11:04 32.4 °F 18.9 °F 23.37 in North 7.8 mph -999.0 mph 57% 0.00 in
11:20 33.4 °F 20.2 °F 23.37 in North 4.2 mph -999.0 mph 58% 0.00 in
11:35 34.0 °F 20.4 °F 23.38 in NE 6.3 mph -999.0 mph 57% 0.00 in
11:50 34.0 °F 21.6 °F 23.38 in North 4.7 mph -999.0 mph 60% 0.00 in
12:05 34.5 °F 22.0 °F 23.38 in NNW 5.8 mph -999.0 mph 60% 0.00 in
12:21 35.1 °F 22.2 °F 23.38 in NNE 5.3 mph -999.0 mph 59% 0.00 in
12:36 35.6 °F 20.6 °F 23.38 in North 6.8 mph -999.0 mph 54% 0.00 in
12:52 35.6 °F 21.0 °F 23.39 in NNW 5.8 mph -999.0 mph 55% 0.00 in
13:07 36.1 °F 21.9 °F 23.39 in NW 6.8 mph -999.0 mph 56% 0.00 in
13:23 36.7 °F 22.0 °F 23.39 in North 5.8 mph -999.0 mph 55% 0.00 in
13:39 36.0 °F 21.0 °F 23.39 in North 7.3 mph -999.0 mph 54% 0.00 in
13:54 35.4 °F 20.0 °F 23.38 in North 7.8 mph -999.0 mph 53% 0.00 in
14:10 35.6 °F 20.1 °F 23.39 in NNE 4.7 mph -999.0 mph 53% 0.00 in
14:25 35.1 °F 20.5 °F 23.38 in North 5.3 mph -999.0 mph 55% 0.00 in
14:40 35.6 °F 20.6 °F 23.38 in NNW 4.7 mph -999.0 mph 54% 0.00 in
14:56 35.8 °F 20.8 °F 23.38 in WNW 5.3 mph -999.0 mph 54% 0.00 in
15:11 35.6 °F 22.3 °F 23.38 in NNW 4.7 mph -999.0 mph 58% 0.00 in
15:26 35.4 °F 21.7 °F 23.39 in NNW 5.3 mph -999.0 mph 57% 0.00 in
15:41 35.4 °F 20.0 °F 23.39 in NNW 5.8 mph -999.0 mph 53% 0.00 in
15:56 35.8 °F 18.0 °F 23.39 in NNW 6.3 mph -999.0 mph 48% 0.00 in
16:12 35.6 °F 20.1 °F 23.39 in North 5.3 mph -999.0 mph 53% 0.00 in
16:27 35.8 °F 19.0 °F 23.40 in NNE 2.7 mph -999.0 mph 50% 0.00 in
16:42 35.4 °F 20.4 °F 23.40 in WNW 4.2 mph -999.0 mph 54% 0.00 in
16:58 34.9 °F 19.9 °F 23.40 in NNW 4.2 mph -999.0 mph 54% 0.00 in
17:13 34.7 °F 19.7 °F 23.41 in NW 2.7 mph -999.0 mph 54% 0.00 in
17:28 37.4 °F 20.9 °F 23.41 in NNW 3.2 mph -999.0 mph 51% 0.00 in
17:43 35.2 °F 20.2 °F 23.41 in NNW 2.2 mph -999.0 mph 54% 0.00 in
17:58 34.0 °F 19.5 °F 23.41 in NNW 2.7 mph -999.0 mph 55% 0.00 in
18:14 33.1 °F 18.2 °F 23.41 in WNW 2.7 mph -999.0 mph 54% 0.00 in
18:29 32.4 °F 17.6 °F 23.42 in NNE 1.7 mph -999.0 mph 54% 0.00 in
18:44 31.3 °F 18.2 °F 23.42 in Calm   -999.0 mph 58% 0.00 in
18:59 29.7 °F 17.5 °F 23.42 in Calm   -999.0 mph 60% 0.00 in
19:14 28.8 °F 17.0 °F 23.42 in Calm   -999.0 mph 61% 0.00 in
19:30 27.9 °F 18.0 °F 23.44 in Calm   -999.0 mph 66% 0.00 in
19:45 27.0 °F 17.8 °F 23.44 in Calm   -999.0 mph 68% 0.00 in
20:00 26.4 °F 17.9 °F 23.45 in Calm   -999.0 mph 70% 0.00 in
20:15 26.2 °F 19.7 °F 23.45 in Calm   -999.0 mph 76% 0.00 in
20:30 25.7 °F 18.9 °F 23.45 in Calm   -999.0 mph 75% 0.00 in
20:46 25.9 °F 20.9 °F 23.46 in Calm   -999.0 mph 81% 0.00 in
21:01 25.2 °F 19.6 °F 23.46 in Calm   -999.0 mph 79% 0.00 in
21:16 25.0 °F 19.7 °F 23.47 in Calm   -999.0 mph 80% 0.00 in
21:31 25.2 °F 19.0 °F 23.47 in Calm   -999.0 mph 77% 0.00 in
21:47 25.0 °F 18.5 °F 23.48 in Calm   -999.0 mph 76% 0.00 in
22:02 24.8 °F 18.9 °F 23.48 in Calm   -999.0 mph 78% 0.00 in
22:17 24.1 °F 17.0 °F 23.48 in Calm   -999.0 mph 74% 0.00 in
22:32 24.6 °F 16.9 °F 23.48 in Calm   -999.0 mph 72% 0.00 in
22:47 25.5 °F 17.7 °F 23.49 in WNW 3.2 mph -999.0 mph 72% 0.00 in
23:03 25.5 °F 15.4 °F 23.49 in South 1.1 mph -999.0 mph 65% 0.00 in
23:18 25.2 °F 14.0 °F 23.50 in East 1.7 mph -999.0 mph 62% 0.00 in
23:33 25.0 °F 13.1 °F 23.50 in Calm   -999.0 mph 60% 0.00 in
23:48 25.3 °F 13.3 °F 23.50 in Calm   -999.0 mph 60% 0.00 in
Big Bear CA Weather